createdAt,value
2023-03-31T00:01:29.694Z,2.69
2023-03-31T00:04:05.463Z,2.59
2023-03-31T00:06:38.549Z,2.53
2023-03-31T00:09:16.362Z,2.39
2023-03-31T00:11:45.968Z,2.33
2023-03-31T00:14:15.835Z,2.32
2023-03-31T00:16:45.607Z,2.31
2023-03-31T00:19:21.445Z,2.28
2023-03-31T00:21:51.843Z,2.28
2023-03-31T00:24:20.597Z,2.28
2023-03-31T00:26:49.222Z,2.29
2023-03-31T00:29:17.801Z,2.28
2023-03-31T00:31:46.469Z,2.34
2023-03-31T00:34:15.118Z,2.32
2023-03-31T00:36:47.792Z,2.35
2023-03-31T00:39:19.540Z,2.34
2023-03-31T00:41:48.300Z,2.35
2023-03-31T00:44:30.250Z,2.36
2023-03-31T00:47:20.183Z,2.41
2023-03-31T00:49:57.148Z,2.45
2023-03-31T00:52:37.881Z,2.47
2023-03-31T00:55:17.975Z,2.51
2023-03-31T00:57:48.381Z,2.57
2023-03-31T01:00:17.473Z,2.55
2023-03-31T01:02:59.812Z,2.57
2023-03-31T01:05:41.271Z,2.58
2023-03-31T01:08:11.055Z,2.55
2023-03-31T01:10:49.871Z,2.58
2023-03-31T01:13:21.901Z,2.53
2023-03-31T01:15:51.699Z,2.53
2023-03-31T01:18:22.046Z,2.59
2023-03-31T01:21:31.450Z,2.53
2023-03-31T01:24:25.168Z,2.54
2023-03-31T01:27:22.431Z,2.53
2023-03-31T01:30:17.481Z,2.51
2023-03-31T01:33:43.191Z,2.50
2023-03-31T01:36:49.132Z,2.51
2023-03-31T01:39:55.218Z,2.47
2023-03-31T01:42:48.294Z,2.56
2023-03-31T01:45:19.924Z,2.54
2023-03-31T01:48:26.213Z,2.50
2023-03-31T01:50:59.643Z,2.55
2023-03-31T01:53:49.148Z,2.50
2023-03-31T01:56:50.179Z,2.45
2023-03-31T01:59:57.107Z,2.47
2023-03-31T02:02:37.945Z,2.47
2023-03-31T02:05:15.895Z,2.49
2023-03-31T02:07:53.332Z,2.51
2023-03-31T02:10:25.471Z,2.49
2023-03-31T02:12:56.476Z,2.48
2023-03-31T02:15:31.490Z,2.46
2023-03-31T02:18:11.441Z,2.42
2023-03-31T02:20:48.186Z,2.46
2023-03-31T02:23:23.223Z,2.54
2023-03-31T02:25:57.934Z,2.52
2023-03-31T02:28:28.876Z,2.46
2023-03-31T02:31:27.421Z,2.47
2023-03-31T02:33:56.753Z,2.47
2023-03-31T02:36:26.231Z,2.46
2023-03-31T02:39:16.253Z,2.45
2023-03-31T02:41:45.217Z,2.46
2023-03-31T02:44:16.469Z,2.50
2023-03-31T02:46:48.539Z,2.52
2023-03-31T02:49:19.495Z,2.52
2023-03-31T02:52:17.856Z,2.55
2023-03-31T02:55:12.619Z,2.49
2023-03-31T02:58:24.116Z,2.49
2023-03-31T03:01:44.130Z,2.49
2023-03-31T03:04:38.121Z,2.55
2023-03-31T03:07:27.013Z,2.56
2023-03-31T03:10:12.060Z,2.55
2023-03-31T03:13:24.703Z,2.53
2023-03-31T03:16:14.128Z,2.51
2023-03-31T03:18:42.953Z,2.51
2023-03-31T03:21:11.941Z,2.47
2023-03-31T03:23:40.647Z,2.46
2023-03-31T03:26:09.327Z,2.47
2023-03-31T03:28:38.074Z,2.43
2023-03-31T03:31:06.747Z,2.39
2023-03-31T03:33:35.805Z,2.38
2023-03-31T03:36:05.991Z,2.41
2023-03-31T03:38:34.916Z,2.44
2023-03-31T03:41:04.111Z,2.45
2023-03-31T03:43:33.220Z,2.51
2023-03-31T03:46:02.028Z,2.52
2023-03-31T03:48:30.685Z,2.56
2023-03-31T03:51:02.433Z,2.55
2023-03-31T03:53:31.095Z,2.60
2023-03-31T03:55:59.929Z,2.67
2023-03-31T03:58:28.899Z,2.68
2023-03-31T04:00:59.412Z,2.73
2023-03-31T04:03:28.503Z,2.74
2023-03-31T04:05:57.590Z,2.78
2023-03-31T04:08:26.408Z,2.91
2023-03-31T04:10:55.992Z,2.89
2023-03-31T04:13:24.879Z,2.86
2023-03-31T04:15:53.492Z,2.90
2023-03-31T04:18:24.782Z,2.89
2023-03-31T04:21:06.192Z,2.95
2023-03-31T04:23:51.450Z,3.00
2023-03-31T04:26:26.867Z,3.09
2023-03-31T04:28:58.928Z,3.13
2023-03-31T04:31:27.908Z,3.16
2023-03-31T04:34:01.741Z,3.19
2023-03-31T04:36:31.545Z,3.18
2023-03-31T04:39:02.405Z,3.24
2023-03-31T04:41:31.002Z,3.28
2023-03-31T04:43:59.614Z,3.29
2023-03-31T04:46:28.613Z,3.36
2023-03-31T04:49:13.572Z,3.39
2023-03-31T04:51:42.395Z,3.36
2023-03-31T04:54:11.653Z,3.42
2023-03-31T04:56:40.453Z,3.42
2023-03-31T04:59:09.153Z,3.42
2023-03-31T05:01:37.773Z,3.46
2023-03-31T05:04:06.764Z,3.43
2023-03-31T05:06:35.536Z,3.45
2023-03-31T05:09:04.345Z,3.53
2023-03-31T05:11:33.038Z,3.60
2023-03-31T05:14:01.642Z,3.64
2023-03-31T05:16:30.493Z,3.73
2023-03-31T05:18:59.254Z,3.76
2023-03-31T05:21:30.935Z,3.84
2023-03-31T05:24:00.158Z,3.86
2023-03-31T05:26:28.837Z,3.94
2023-03-31T05:28:57.438Z,3.97
2023-03-31T05:31:26.531Z,4.06
2023-03-31T05:37:27.354Z,4.17
2023-03-31T05:39:59.172Z,4.22
2023-03-31T05:42:27.882Z,4.22
2023-03-31T05:44:58.105Z,4.23
2023-03-31T05:47:27.217Z,4.36
2023-03-31T05:49:56.035Z,4.39
2023-03-31T05:52:24.743Z,4.44
2023-03-31T05:54:53.344Z,4.51
2023-03-31T05:57:21.997Z,4.66
2023-03-31T05:59:50.771Z,4.71
2023-03-31T06:02:19.425Z,4.76
2023-03-31T06:04:48.358Z,4.85
2023-03-31T06:07:18.043Z,4.92
2023-03-31T06:09:47.014Z,5.02
2023-03-31T06:12:16.256Z,5.04
2023-03-31T06:14:44.913Z,5.14
2023-03-31T06:17:13.418Z,5.17
2023-03-31T06:19:42.053Z,5.24
2023-03-31T06:22:10.888Z,5.31
2023-03-31T06:24:39.492Z,5.43
2023-03-31T06:27:08.102Z,5.52
2023-03-31T06:29:41.446Z,5.63
2023-03-31T06:32:12.217Z,5.67
2023-03-31T06:34:40.974Z,5.69
2023-03-31T06:37:09.554Z,5.76
2023-03-31T06:39:38.221Z,5.73
2023-03-31T06:42:07.587Z,5.85
2023-03-31T06:44:40.957Z,5.92
2023-03-31T06:47:09.521Z,6.02
2023-03-31T06:49:38.308Z,6.06
2023-03-31T06:52:07.240Z,6.15
2023-03-31T06:54:35.837Z,6.23
2023-03-31T06:57:04.617Z,6.27
2023-03-31T06:59:33.340Z,6.28
2023-03-31T07:02:02.293Z,6.33
2023-03-31T07:04:31.146Z,6.43
2023-03-31T07:07:00.100Z,6.42
2023-03-31T07:09:28.698Z,6.47
2023-03-31T07:11:57.535Z,6.48
2023-03-31T07:14:26.368Z,6.66
2023-03-31T07:16:55.023Z,6.81
2023-03-31T07:19:24.041Z,6.94
2023-03-31T07:21:53.333Z,7.01
2023-03-31T07:24:21.996Z,7.17
2023-03-31T07:26:50.854Z,7.17
2023-03-31T07:29:20.725Z,7.29
2023-03-31T07:31:49.385Z,7.32
2023-03-31T07:34:17.970Z,7.42
2023-03-31T07:36:46.595Z,7.53
2023-03-31T07:39:15.189Z,7.61
2023-03-31T07:41:43.704Z,7.60
2023-03-31T07:44:12.398Z,7.75
2023-03-31T07:46:41.182Z,7.80
2023-03-31T07:49:10.653Z,7.86
2023-03-31T07:51:39.325Z,7.82
2023-03-31T07:54:08.147Z,7.88
2023-03-31T07:56:36.788Z,7.90
2023-03-31T07:59:05.881Z,8.01
2023-03-31T08:01:35.434Z,8.10
2023-03-31T08:04:04.359Z,8.09
2023-03-31T08:06:33.761Z,8.10
2023-03-31T08:09:03.030Z,8.07
2023-03-31T08:11:31.584Z,8.04
2023-03-31T08:14:00.540Z,8.09
2023-03-31T08:16:29.345Z,8.14
2023-03-31T08:18:58.547Z,8.18
2023-03-31T08:21:31.561Z,8.16
2023-03-31T08:24:00.329Z,8.20
2023-03-31T08:26:28.946Z,8.24
2023-03-31T08:28:59.338Z,8.20
2023-03-31T08:31:29.503Z,8.22
2023-03-31T08:33:58.190Z,8.26
2023-03-31T08:36:27.451Z,8.30
2023-03-31T08:38:56.233Z,8.28
2023-03-31T08:42:01.068Z,8.39
2023-03-31T08:44:59.930Z,8.58
2023-03-31T08:47:32.909Z,8.67
2023-03-31T08:50:15.089Z,8.76
2023-03-31T08:53:22.816Z,8.82
2023-03-31T08:55:58.426Z,8.94
2023-03-31T08:58:55.653Z,9.02
2023-03-31T09:01:54.580Z,9.09
2023-03-31T09:04:33.957Z,9.17
2023-03-31T09:07:36.681Z,9.32
2023-03-31T09:10:51.976Z,9.38
2023-03-31T09:13:46.614Z,9.36
2023-03-31T09:16:22.753Z,9.46
2023-03-31T09:18:58.744Z,9.58
2023-03-31T09:21:40.034Z,9.68
2023-03-31T09:24:28.658Z,9.91
2023-03-31T09:27:12.757Z,10.14
2023-03-31T09:29:47.690Z,10.40
2023-03-31T09:32:28.848Z,10.58
2023-03-31T09:35:13.684Z,10.69
2023-03-31T09:37:42.278Z,10.75
2023-03-31T09:40:22.416Z,10.94
2023-03-31T09:43:02.507Z,11.03
2023-03-31T09:45:31.738Z,11.32
2023-03-31T09:48:24.037Z,11.52
2023-03-31T09:51:06.070Z,11.92
2023-03-31T09:54:10.709Z,12.27
2023-03-31T09:56:42.384Z,12.38
2023-03-31T09:59:20.201Z,12.57
2023-03-31T10:01:57.296Z,12.60
2023-03-31T10:04:33.549Z,12.73
2023-03-31T10:07:05.303Z,12.83
2023-03-31T10:09:38.689Z,12.70
2023-03-31T10:12:16.480Z,12.62
2023-03-31T10:14:50.326Z,12.62
2023-03-31T10:17:25.090Z,12.63
2023-03-31T10:19:55.270Z,12.66
2023-03-31T10:22:23.837Z,12.53
2023-03-31T10:24:53.137Z,12.54
2023-03-31T10:27:30.405Z,12.41
2023-03-31T10:30:08.629Z,12.47
2023-03-31T10:32:44.791Z,12.36
2023-03-31T10:35:33.538Z,12.23
2023-03-31T10:38:14.506Z,12.15
2023-03-31T10:40:53.343Z,12.15
2023-03-31T10:43:31.081Z,12.08
2023-03-31T10:46:00.803Z,12.18
2023-03-31T10:48:42.480Z,12.27
2023-03-31T10:51:27.973Z,12.22
2023-03-31T10:54:03.600Z,12.21
2023-03-31T10:56:47.874Z,12.31
2023-03-31T10:59:36.589Z,12.20
2023-03-31T11:02:39.480Z,12.27
2023-03-31T11:05:46.160Z,12.18
2023-03-31T11:08:27.412Z,12.11
2023-03-31T11:11:32.126Z,12.04
2023-03-31T11:14:39.436Z,12.03
2023-03-31T11:17:37.411Z,11.86
2023-03-31T11:20:29.094Z,11.82
2023-03-31T11:23:28.634Z,11.58
2023-03-31T11:26:11.042Z,11.46
2023-03-31T11:29:20.746Z,11.43
2023-03-31T11:32:20.069Z,11.36
2023-03-31T11:35:21.526Z,11.39
2023-03-31T11:38:11.802Z,11.44
2023-03-31T11:41:14.112Z,11.48
2023-03-31T11:43:50.955Z,11.47
2023-03-31T11:46:28.151Z,11.44
2023-03-31T11:49:06.705Z,11.34
2023-03-31T11:51:54.504Z,11.29
2023-03-31T11:54:32.280Z,11.18
2023-03-31T11:57:17.022Z,11.11
2023-03-31T12:00:14.010Z,11.03
2023-03-31T12:04:16.819Z,10.96
2023-03-31T12:06:47.693Z,10.84
2023-03-31T12:09:33.312Z,10.86
2023-03-31T12:12:11.465Z,10.88
2023-03-31T12:14:48.615Z,10.89
2023-03-31T12:17:26.614Z,10.96
2023-03-31T12:20:10.824Z,10.99
2023-03-31T12:22:47.242Z,10.98
2023-03-31T12:25:26.824Z,10.96
2023-03-31T12:27:56.809Z,10.90
2023-03-31T12:30:34.857Z,10.89
2023-03-31T12:33:14.633Z,10.80
2023-03-31T12:36:32.948Z,10.84
2023-03-31T12:39:18.205Z,10.93
2023-03-31T12:42:12.913Z,11.02
2023-03-31T12:45:40.573Z,11.05
2023-03-31T12:48:54.005Z,11.03
2023-03-31T12:52:01.114Z,11.01
2023-03-31T12:54:41.496Z,10.98
2023-03-31T12:57:10.223Z,11.00
2023-03-31T13:00:14.496Z,11.05
2023-03-31T13:02:43.975Z,11.13
2023-03-31T13:05:37.633Z,11.12
2023-03-31T13:08:10.865Z,11.12
2023-03-31T13:10:59.769Z,11.10
2023-03-31T13:13:28.719Z,11.14
2023-03-31T13:16:00.109Z,11.13
2023-03-31T13:18:33.510Z,11.10
2023-03-31T13:21:08.100Z,11.13
2023-03-31T13:23:37.948Z,11.15
2023-03-31T13:26:07.314Z,11.11
2023-03-31T13:28:42.816Z,11.13
2023-03-31T13:31:16.212Z,11.09
2023-03-31T13:33:57.747Z,11.02
2023-03-31T13:36:32.981Z,10.98
2023-03-31T13:39:45.107Z,10.97
2023-03-31T13:42:22.552Z,11.02
2023-03-31T13:44:57.222Z,11.07
2023-03-31T13:47:57.462Z,11.01
2023-03-31T13:50:57.922Z,11.05
2023-03-31T13:54:17.519Z,11.05
2023-03-31T13:57:13.347Z,11.06
2023-03-31T14:00:32.655Z,11.07
2023-03-31T14:03:31.725Z,11.14
2023-03-31T14:06:19.311Z,11.18
2023-03-31T14:08:56.467Z,11.27
2023-03-31T14:11:31.985Z,11.39
2023-03-31T14:14:13.464Z,11.53
2023-03-31T14:16:55.943Z,11.69
2023-03-31T14:20:24.529Z,11.89
2023-03-31T14:23:40.900Z,11.97
2023-03-31T14:26:54.444Z,11.99
2023-03-31T14:29:29.940Z,12.07
2023-03-31T14:32:46.089Z,12.06
2023-03-31T14:35:34.218Z,11.84
2023-03-31T14:38:06.404Z,11.81
2023-03-31T14:40:54.910Z,11.78
2023-03-31T14:43:37.105Z,11.80
2023-03-31T14:46:08.845Z,11.86
2023-03-31T14:48:48.912Z,11.95
2023-03-31T14:51:27.150Z,11.93
2023-03-31T14:54:02.696Z,11.93
2023-03-31T14:56:40.808Z,11.93
2023-03-31T14:59:10.053Z,11.98
2023-03-31T15:01:39.994Z,12.16
2023-03-31T15:04:16.067Z,12.29
2023-03-31T15:06:50.879Z,12.44
2023-03-31T15:09:30.536Z,12.68
2023-03-31T15:12:22.054Z,12.82
2023-03-31T15:14:58.278Z,12.85
2023-03-31T15:17:33.270Z,12.97
2023-03-31T15:20:20.981Z,13.09
2023-03-31T15:22:50.977Z,13.26
2023-03-31T15:25:20.812Z,13.27
2023-03-31T15:28:00.418Z,13.38
2023-03-31T15:30:30.751Z,13.27
2023-03-31T15:35:50.248Z,13.14
2023-03-31T15:38:19.130Z,13.11
2023-03-31T15:40:55.021Z,13.19
2023-03-31T15:43:46.739Z,13.18
2023-03-31T15:46:38.513Z,12.93
2023-03-31T15:49:24.244Z,12.74
2023-03-31T15:51:57.007Z,12.60
2023-03-31T15:54:37.120Z,12.53
2023-03-31T15:57:08.456Z,12.51
2023-03-31T15:59:55.746Z,12.42
2023-03-31T16:02:47.192Z,12.40
2023-03-31T16:05:53.469Z,12.27
2023-03-31T16:09:01.164Z,12.20
2023-03-31T16:11:41.538Z,12.06
2023-03-31T16:14:44.229Z,11.92
2023-03-31T16:17:29.647Z,11.81
2023-03-31T16:20:09.066Z,11.72
2023-03-31T16:22:48.090Z,11.64
2023-03-31T16:25:21.659Z,11.49
2023-03-31T16:27:58.484Z,11.40
2023-03-31T16:30:40.797Z,11.29
2023-03-31T16:33:15.988Z,11.19
2023-03-31T16:35:53.117Z,11.12
2023-03-31T16:38:24.758Z,11.02
2023-03-31T16:40:56.405Z,10.95
2023-03-31T16:43:31.329Z,10.84
2023-03-31T16:46:04.218Z,10.75
2023-03-31T16:48:36.122Z,10.67
2023-03-31T16:51:04.853Z,10.59
2023-03-31T16:53:36.352Z,10.52
2023-03-31T16:56:10.221Z,10.47
2023-03-31T16:58:40.380Z,10.42
2023-03-31T17:01:10.777Z,10.37
2023-03-31T17:03:42.468Z,10.32
2023-03-31T17:06:13.429Z,10.28
2023-03-31T17:08:42.022Z,10.23
2023-03-31T17:11:14.516Z,10.20
2023-03-31T17:13:44.943Z,10.15
2023-03-31T17:16:21.959Z,10.10
2023-03-31T17:18:55.540Z,10.04
2023-03-31T17:21:24.691Z,10.00
2023-03-31T17:23:53.439Z,9.94
2023-03-31T17:26:22.767Z,9.88
2023-03-31T17:28:52.007Z,9.81
2023-03-31T17:31:22.625Z,9.72
2023-03-31T17:33:51.375Z,9.68
2023-03-31T17:36:20.136Z,9.63
2023-03-31T17:38:49.431Z,9.63
2023-03-31T17:41:18.273Z,9.58
2023-03-31T17:43:49.071Z,9.47
2023-03-31T17:46:19.249Z,9.43
2023-03-31T17:48:47.987Z,9.37
2023-03-31T17:51:20.247Z,9.33
2023-03-31T17:53:49.182Z,9.26
2023-03-31T17:56:18.180Z,9.18
2023-03-31T17:58:47.497Z,9.10
2023-03-31T18:01:16.563Z,9.01
2023-03-31T18:03:46.535Z,8.96
2023-03-31T18:06:15.887Z,8.89
2023-03-31T18:08:44.646Z,8.85
2023-03-31T18:11:17.865Z,8.83
2023-03-31T18:13:54.059Z,8.80
2023-03-31T18:16:22.844Z,8.68
2023-03-31T18:18:51.494Z,8.64
2023-03-31T18:21:20.184Z,8.57
2023-03-31T18:23:52.733Z,8.48
2023-03-31T18:26:24.694Z,8.41
2023-03-31T18:28:53.558Z,8.36
2023-03-31T18:31:22.548Z,8.33
2023-03-31T18:33:55.055Z,8.31
2023-03-31T18:36:24.032Z,8.28
2023-03-31T18:38:53.565Z,8.30
2023-03-31T18:41:23.317Z,8.26
2023-03-31T18:43:52.480Z,8.28
2023-03-31T18:46:24.345Z,8.26
2023-03-31T18:48:53.156Z,8.23
2023-03-31T18:51:24.078Z,8.12
2023-03-31T18:53:52.686Z,8.09
2023-03-31T18:56:23.270Z,8.00
2023-03-31T18:58:52.025Z,7.95
2023-03-31T19:01:21.079Z,7.85
2023-03-31T19:03:50.039Z,7.75
2023-03-31T19:06:21.275Z,7.77
2023-03-31T19:08:49.871Z,7.76
2023-03-31T19:11:18.572Z,7.70
2023-03-31T19:13:50.641Z,7.63
2023-03-31T19:16:19.327Z,7.61
2023-03-31T19:18:48.063Z,7.46
2023-03-31T19:21:16.696Z,7.42
2023-03-31T19:23:45.618Z,7.35
2023-03-31T19:26:16.823Z,7.31
2023-03-31T19:28:47.666Z,7.23
2023-03-31T19:31:16.272Z,7.21
2023-03-31T19:33:44.878Z,7.21
2023-03-31T19:36:14.569Z,7.22
2023-03-31T19:38:44.101Z,7.25
2023-03-31T19:41:12.768Z,7.26
2023-03-31T19:43:41.383Z,7.27
2023-03-31T19:46:10.162Z,7.21
2023-03-31T19:48:38.863Z,7.25
2023-03-31T19:51:08.719Z,7.27
2023-03-31T19:53:39.150Z,7.30
2023-03-31T19:56:12.008Z,7.32
2023-03-31T19:58:41.457Z,7.30
2023-03-31T20:01:27.741Z,7.27
2023-03-31T20:03:57.325Z,7.30
2023-03-31T20:06:29.623Z,7.24
2023-03-31T20:09:02.201Z,7.09
2023-03-31T20:11:32.329Z,6.98
2023-03-31T20:14:03.824Z,6.91
2023-03-31T20:16:33.232Z,6.91
2023-03-31T20:19:05.276Z,6.86
2023-03-31T20:21:37.817Z,6.80
2023-03-31T20:24:07.296Z,6.76
2023-03-31T20:26:36.364Z,6.75
2023-03-31T20:29:05.162Z,6.72
2023-03-31T20:31:39.384Z,6.67
2023-03-31T20:34:16.841Z,6.65
2023-03-31T20:36:49.363Z,6.65
2023-03-31T20:39:18.851Z,6.65
2023-03-31T20:41:50.233Z,6.63
2023-03-31T20:44:19.290Z,6.60
2023-03-31T20:46:48.631Z,6.55
2023-03-31T20:49:17.261Z,6.46
2023-03-31T20:53:53.036Z,6.31
2023-03-31T20:56:33.802Z,6.25
2023-03-31T20:59:03.889Z,6.14
2023-03-31T21:01:35.416Z,6.08
2023-03-31T21:04:07.567Z,5.99
2023-03-31T21:06:40.668Z,5.93
2023-03-31T21:09:11.876Z,5.92
2023-03-31T21:11:41.028Z,5.90
2023-03-31T21:14:17.358Z,5.92
2023-03-31T21:16:46.301Z,5.92
2023-03-31T21:19:14.781Z,5.91
2023-03-31T21:21:43.482Z,5.92
2023-03-31T21:24:13.549Z,5.89
2023-03-31T21:26:42.499Z,5.87
2023-03-31T21:29:11.231Z,5.84
2023-03-31T21:31:41.817Z,5.81
2023-03-31T21:34:11.112Z,5.83
2023-03-31T21:36:39.876Z,5.84
2023-03-31T21:39:09.888Z,5.78
2023-03-31T21:41:40.658Z,5.72
2023-03-31T21:44:10.071Z,5.67
2023-03-31T21:46:38.791Z,5.59
2023-03-31T21:49:07.542Z,5.54
2023-03-31T21:51:36.117Z,5.51
2023-03-31T21:54:05.019Z,5.45
2023-03-31T21:56:33.824Z,5.37
2023-03-31T21:59:04.470Z,5.31
2023-03-31T22:01:33.999Z,5.26
2023-03-31T22:04:02.883Z,5.23
2023-03-31T22:06:31.906Z,5.20
2023-03-31T22:09:00.614Z,5.18
2023-03-31T22:11:29.298Z,5.10
2023-03-31T22:13:58.284Z,5.07
2023-03-31T22:16:27.071Z,5.05
2023-03-31T22:18:55.985Z,5.07
2023-03-31T22:21:41.743Z,5.06
2023-03-31T22:24:13.693Z,5.04
2023-03-31T22:26:42.500Z,5.01
2023-03-31T22:29:15.861Z,4.98
2023-03-31T22:31:44.472Z,4.94
2023-03-31T22:34:13.178Z,4.92
2023-03-31T22:36:42.078Z,4.90
2023-03-31T22:39:10.865Z,4.90
2023-03-31T22:41:39.517Z,4.88
2023-03-31T22:44:08.889Z,4.88
2023-03-31T22:46:40.728Z,4.88
2023-03-31T22:49:10.304Z,4.88
2023-03-31T22:51:40.910Z,4.87
2023-03-31T22:54:14.962Z,4.82
2023-03-31T22:56:44.445Z,4.78
2023-03-31T22:59:13.212Z,4.73
2023-03-31T23:01:42.550Z,4.70
2023-03-31T23:04:11.223Z,4.69
2023-03-31T23:06:40.481Z,4.68
2023-03-31T23:09:09.040Z,4.69
2023-03-31T23:11:37.653Z,4.69
2023-03-31T23:14:06.233Z,4.69
2023-03-31T23:16:34.832Z,4.71
2023-03-31T23:19:04.012Z,4.70
2023-03-31T23:21:33.238Z,4.70
2023-03-31T23:24:04.637Z,4.68
2023-03-31T23:26:34.985Z,4.62
2023-03-31T23:29:04.434Z,4.56
2023-03-31T23:31:33.922Z,4.55
2023-03-31T23:34:02.488Z,4.53
2023-03-31T23:36:31.269Z,4.51
2023-03-31T23:38:59.969Z,4.51
2023-03-31T23:41:29.242Z,4.48
2023-03-31T23:43:58.191Z,4.46
2023-03-31T23:46:27.101Z,4.45
2023-03-31T23:48:56.054Z,4.40
2023-03-31T23:51:24.682Z,4.34
2023-03-31T23:53:53.438Z,4.31
2023-03-31T23:56:22.442Z,4.24
2023-03-31T23:58:51.114Z,4.20
